Time;durP1;ratioP1;P1;durP2;ratioP2;P2;SDS_P1;SDS_P2;PMS_P1;PMS_P2;Temp;Humidity;BMP_temperature;BMP_pressure;BME280_temperature;BME280_humidity;BME280_pressure;Samples;Min_cycle;Max_cycle;Signal;HPM_P1;HPM_P2
2022/05/26 00:01:42;;;;;;;3.28;1.90;;;;;;;11.95;nan;99061.31;5001398;28;20034;-62
2022/05/26 00:04:08;;;;;;;2.28;2.08;;;;;;;11.77;nan;99064.19;4997783;28;20128;-62
2022/05/26 00:06:33;;;;;;;1.75;1.70;;;;;;;11.57;nan;99043.94;4994705;28;20141;-62
2022/05/26 00:08:59;;;;;;;3.15;2.55;;;;;;;11.47;nan;99055.22;4998635;28;20097;-64
2022/05/26 00:11:29;;;;;;;2.85;2.58;;;;;;;11.40;nan;99057.06;5002601;28;20085;-61
2022/05/26 00:13:55;;;;;;;2.88;2.20;;;;;;;11.28;nan;99064.09;4997378;28;20045;-61
2022/05/26 00:16:21;;;;;;;2.25;2.15;;;;;;;11.23;nan;99059.03;4995840;28;20034;-61
2022/05/26 00:18:47;;;;;;;2.38;2.17;;;;;;;11.20;nan;99060.78;4999768;28;20037;-61
2022/05/26 00:21:13;;;;;;;3.88;3.17;;;;;;;11.16;nan;99061.72;5002260;28;20045;-60
2022/05/26 00:23:39;;;;;;;2.03;1.80;;;;;;;11.20;nan;99073.63;4996658;28;20038;-61
2022/05/26 00:26:05;;;;;;;2.28;2.00;;;;;;;11.16;nan;99059.16;4994282;28;20094;-60
2022/05/26 00:28:31;;;;;;;3.42;1.83;;;;;;;11.26;nan;99068.38;5002208;28;20392;-63
2022/05/26 00:30:57;;;;;;;2.05;1.90;;;;;;;11.19;nan;99046.25;5000408;28;20076;-62
2022/05/26 00:33:23;;;;;;;2.28;2.15;;;;;;;11.22;nan;99059.88;4995538;28;20096;-61
2022/05/26 00:35:49;;;;;;;2.00;1.60;;;;;;;11.28;nan;99062.38;4991248;28;20572;-63
2022/05/26 00:38:16;;;;;;;2.22;2.03;;;;;;;11.18;nan;99050.53;4997217;28;20476;-61
2022/05/26 00:40:44;;;;;;;1.77;1.60;;;;;;;11.24;nan;99060.72;4997454;28;20061;-61
2022/05/26 00:43:10;;;;;;;2.35;2.15;;;;;;;11.21;nan;99058.19;4990554;28;20527;-62
2022/05/26 00:45:44;;;;;;;2.17;1.90;;;;;;;11.35;nan;99071.66;4991873;28;20026;-61
2022/05/26 00:48:13;;;;;;;2.17;2.00;;;;;;;11.40;nan;99063.91;4997982;28;20044;-63
2022/05/26 00:50:52;;;;;;;3.63;2.03;;;;;;;11.38;nan;99069.06;4997109;28;20057;-62
2022/05/26 00:53:20;;;;;;;2.22;2.10;;;;;;;11.31;nan;99069.16;4992428;28;20546;-61
2022/05/26 00:55:54;;;;;;;1.48;1.48;;;;;;;11.36;nan;99069.97;4994714;28;20042;-61
2022/05/26 00:58:24;;;;;;;2.20;2.10;;;;;;;11.39;nan;99067.34;4998138;28;20104;-61
2022/05/26 01:00:49;;;;;;;1.95;1.85;;;;;;;11.53;nan;99067.13;4994858;28;20041;-61
2022/05/26 01:03:31;;;;;;;1.95;1.67;;;;;;;11.59;nan;99049.88;4990649;28;20392;-62
2022/05/26 01:06:06;;;;;;;2.47;2.13;;;;;;;11.59;nan;99043.91;4996792;28;20080;-61
2022/05/26 01:08:38;;;;;;;1.60;1.50;;;;;;;11.61;nan;99055.00;5003877;28;20027;-61
2022/05/26 01:11:04;;;;;;;1.58;1.50;;;;;;;11.70;nan;99062.56;4991937;28;20081;-62
2022/05/26 01:13:31;;;;;;;2.28;1.92;;;;;;;11.84;nan;99058.91;4992468;28;20035;-61
2022/05/26 01:16:04;;;;;;;3.78;1.85;;;;;;;11.90;nan;99061.38;4997395;28;20114;-61
2022/05/26 01:18:52;;;;;;;1.80;1.70;;;;;;;11.98;nan;99056.09;4997827;28;20041;-61
2022/05/26 01:21:36;;;;;;;4.07;1.70;;;;;;;12.07;nan;99031.97;4992423;28;20420;-62
2022/05/26 01:24:01;;;;;;;2.00;1.90;;;;;;;12.35;nan;99040.84;4996738;28;20066;-62
2022/05/26 01:27:01;;;;;;;1.65;1.55;;;;;;;12.49;nan;99046.56;4997284;28;20084;-65
2022/05/26 01:29:35;;;;;;;1.77;1.67;;;;;;;12.62;nan;99042.00;4993222;28;20484;-62
2022/05/26 01:32:38;;;;;;;1.80;1.70;;;;;;;12.73;nan;99051.19;4992297;28;20034;-62
2022/05/26 01:35:22;;;;;;;1.70;1.60;;;;;;;12.75;nan;99034.00;4974826;28;20042;-61
2022/05/26 01:38:18;;;;;;;3.42;1.63;;;;;;;12.88;nan;99044.03;4994098;28;20164;-61
2022/05/26 01:40:54;;;;;;;2.75;1.50;;;;;;;12.78;nan;99038.25;4991007;28;20637;-61
2022/05/26 01:43:45;;;;;;;1.50;1.40;;;;;;;12.76;nan;99034.88;4995944;28;20037;-61
2022/05/26 01:46:25;;;;;;;1.63;1.52;;;;;;;12.62;nan;99049.72;4994566;28;20061;-63
2022/05/26 01:49:05;;;;;;;2.03;1.92;;;;;;;12.29;nan;99033.25;4989782;28;20030;-61
2022/05/26 01:51:40;;;;;;;1.90;1.80;;;;;;;12.14;nan;99046.38;4990047;28;20563;-61
2022/05/26 01:54:17;;;;;;;2.00;1.80;;;;;;;11.93;nan;99042.47;4995898;28;20076;-61
2022/05/26 01:56:50;;;;;;;1.95;1.77;;;;;;;11.73;nan;99034.28;4994199;28;20085;-61
2022/05/26 01:59:22;;;;;;;3.42;1.85;;;;;;;11.84;nan;99050.34;4990149;28;20033;-61
2022/05/26 02:01:54;;;;;;;2.13;1.90;;;;;;;11.89;nan;99057.13;4993146;28;20076;-61
2022/05/26 02:04:28;;;;;;;1.55;1.45;;;;;;;11.94;nan;99063.88;4996329;28;20034;-61
2022/05/26 02:07:01;;;;;;;2.53;1.75;;;;;;;11.88;nan;99057.97;4991015;28;20042;-61
2022/05/26 02:09:34;;;;;;;2.30;1.60;;;;;;;12.04;nan;99068.84;4989969;28;20139;-61
2022/05/26 02:12:12;;;;;;;1.60;1.50;;;;;;;12.12;nan;99049.00;4995535;28;20149;-61
2022/05/26 02:14:46;;;;;;;1.63;1.52;;;;;;;12.09;nan;99048.22;4989085;28;20383;-61
2022/05/26 02:17:20;;;;;;;1.42;1.42;;;;;;;12.20;nan;99043.72;4989864;28;20037;-61
2022/05/26 02:19:59;;;;;;;2.35;2.10;;;;;;;12.46;nan;99051.78;4992604;28;20034;-61
2022/05/26 02:22:32;;;;;;;2.30;1.55;;;;;;;12.71;nan;99058.13;4995786;28;20029;-61
2022/05/26 02:25:07;;;;;;;1.77;1.67;;;;;;;12.51;nan;99043.97;4992606;28;20041;-61
2022/05/26 02:27:34;;;;;;;3.00;1.33;;;;;;;12.46;nan;99062.06;4988649;28;20054;-61
2022/05/26 02:30:01;;;;;;;1.65;1.55;;;;;;;12.27;nan;99047.84;4994636;28;20364;-61
2022/05/26 02:32:35;;;;;;;2.45;1.67;;;;;;;12.26;nan;99059.03;4996061;28;20053;-61
2022/05/26 02:35:06;;;;;;;1.42;1.30;;;;;;;12.15;nan;99042.94;4991024;28;20069;-61
2022/05/26 02:37:33;;;;;;;2.17;1.38;;;;;;;12.19;nan;99047.16;4996798;28;20118;-61
2022/05/26 02:39:59;;;;;;;1.50;1.40;;;;;;;12.31;nan;99055.47;4995643;28;20026;-60
2022/05/26 02:42:25;;;;;;;2.80;1.45;;;;;;;12.30;nan;99058.94;4995446;28;20573;-61
2022/05/26 02:44:52;;;;;;;1.67;1.58;;;;;;;12.37;nan;99059.66;4988541;28;20054;-61
2022/05/26 02:47:23;;;;;;;1.70;1.60;;;;;;;12.37;nan;99064.81;4991069;28;20483;-61
2022/05/26 02:50:05;;;;;;;2.42;1.40;;;;;;;12.21;nan;99060.84;4996085;28;20141;-61
2022/05/26 02:52:59;;;;;;;1.92;1.83;;;;;;;12.09;nan;99066.22;4993825;28;20411;-61
2022/05/26 02:56:01;;;;;;;1.60;1.50;;;;;;;11.94;nan;99058.75;4988920;28;20026;-61
2022/05/26 02:58:46;;;;;;;2.63;1.55;;;;;;;11.75;nan;99066.75;4994622;28;20037;-61
2022/05/26 03:01:26;;;;;;;2.97;1.58;;;;;;;11.71;nan;99072.78;4995941;28;20410;-61
2022/05/26 03:04:08;;;;;;;1.80;1.70;;;;;;;11.72;nan;99073.69;4987638;28;20080;-61
2022/05/26 03:06:58;;;;;;;1.63;1.52;;;;;;;11.70;nan;99070.28;4991715;28;20481;-62
2022/05/26 03:09:25;;;;;;;1.80;1.70;;;;;;;11.58;nan;99047.38;4995792;28;20104;-61
2022/05/26 03:11:56;;;;;;;2.28;1.67;;;;;;;11.69;nan;99073.72;4993160;28;20041;-61
2022/05/26 03:14:23;;;;;;;1.70;1.60;;;;;;;11.69;nan;99072.00;4987872;28;20026;-61
2022/05/26 03:16:49;;;;;;;1.75;1.65;;;;;;;11.65;nan;99072.91;4993235;28;20033;-61
2022/05/26 03:19:15;;;;;;;1.70;1.55;;;;;;;11.50;nan;99065.44;4994902;28;20031;-60
2022/05/26 03:21:41;;;;;;;4.32;1.75;;;;;;;11.53;nan;99085.94;4991504;28;20037;-61
2022/05/26 03:24:07;;;;;;;3.88;1.83;;;;;;;11.47;nan;99083.47;4988215;28;20065;-60
2022/05/26 03:26:34;;;;;;;1.80;1.70;;;;;;;11.49;nan;99089.44;4994069;28;20084;-61
2022/05/26 03:28:59;;;;;;;1.45;1.27;;;;;;;11.48;nan;99077.47;4994199;28;20380;-60
2022/05/26 03:31:25;;;;;;;1.90;1.70;;;;;;;11.67;nan;99096.84;4989583;28;20034;-65
2022/05/26 03:42:04;;;;;;;4.15;1.88;;;;;;;11.44;nan;99092.06;4987119;28;20036;-66
2022/05/26 03:44:32;;;;;;;2.13;1.60;;;;;;;11.37;nan;99084.50;4990365;28;20125;-66
2022/05/26 03:46:58;;;;;;;1.65;1.52;;;;;;;11.42;nan;99103.22;4995572;28;20034;-64
2022/05/26 03:49:24;;;;;;;1.77;1.67;;;;;;;11.31;nan;99092.28;4992453;28;20551;-65
2022/05/26 03:51:49;;;;;;;2.88;1.58;;;;;;;11.33;nan;99101.63;4987699;28;20042;-65
2022/05/26 03:54:14;;;;;;;1.92;1.83;;;;;;;11.44;nan;99114.34;4993642;28;20044;-65
2022/05/26 03:56:40;;;;;;;1.50;1.40;;;;;;;11.54;nan;99125.31;4996913;28;20111;-65
2022/05/26 03:59:05;;;;;;;2.05;1.88;;;;;;;11.57;nan;99110.72;4991194;28;20089;-65
2022/05/26 04:01:31;;;;;;;1.85;1.55;;;;;;;11.76;nan;99112.13;4987855;28;20316;-64
2022/05/26 04:03:56;;;;;;;1.73;1.60;;;;;;;11.89;nan;99116.22;4993464;28;20531;-65
2022/05/26 04:06:23;;;;;;;1.73;1.63;;;;;;;12.12;nan;99130.41;4995510;28;20034;-64
2022/05/26 04:08:48;;;;;;;2.00;1.33;;;;;;;12.19;nan;99119.97;4989746;28;20440;-65
2022/05/26 04:11:14;;;;;;;1.23;1.23;;;;;;;12.39;nan;99140.19;4991218;28;20038;-66
2022/05/26 04:13:40;;;;;;;1.40;1.30;;;;;;;12.39;nan;99135.03;4996620;28;20470;-65
2022/05/26 04:16:06;;;;;;;1.10;1.10;;;;;;;12.46;nan;99140.94;4999178;28;20045;-66
2022/05/26 04:18:31;;;;;;;1.40;1.30;;;;;;;12.58;nan;99149.25;4991391;28;20030;-65
2022/05/26 04:21:09;;;;;;;2.22;2.08;;;;;;;12.60;nan;99150.06;5007460;28;20030;-65
2022/05/26 04:23:35;;;;;;;2.55;2.33;;;;;;;12.54;nan;99145.06;4997431;28;20164;-65
2022/05/26 04:26:06;;;;;;;2.10;2.00;;;;;;;12.48;nan;99150.28;4996786;28;20056;-65
2022/05/26 04:28:31;;;;;;;2.58;2.35;;;;;;;12.58;nan;99156.97;4993284;28;20049;-66
2022/05/26 04:30:57;;;;;;;3.90;2.03;;;;;;;12.52;nan;99151.13;4994401;28;20099;-66
2022/05/26 04:33:22;;;;;;;2.13;2.03;;;;;;;12.67;nan;99159.38;4997591;28;20373;-66
2022/05/26 04:35:48;;;;;;;2.78;1.88;;;;;;;12.69;nan;99142.19;4995788;28;20031;-66
2022/05/26 04:38:13;;;;;;;1.85;1.65;;;;;;;12.88;nan;99157.28;4992450;28;20061;-65
2022/05/26 04:40:39;;;;;;;3.60;1.83;;;;;;;12.98;nan;99149.34;4994756;28;20041;-65
2022/05/26 04:43:06;;;;;;;2.55;1.95;;;;;;;13.08;nan;99153.41;4997033;28;20038;-65
2022/05/26 04:45:32;;;;;;;2.03;1.92;;;;;;;13.18;nan;99151.53;4995293;28;20465;-65
2022/05/26 04:47:58;;;;;;;3.33;1.45;;;;;;;13.44;nan;99162.13;4990855;28;20034;-66
2022/05/26 04:50:24;;;;;;;1.90;1.75;;;;;;;13.63;nan;99162.53;4994657;28;20030;-65
2022/05/26 04:52:50;;;;;;;2.85;2.22;;;;;;;13.83;nan;99173.25;4997169;28;20061;-63
2022/05/26 04:55:16;;;;;;;3.63;1.80;;;;;;;14.00;nan;99172.88;4995025;28;20034;-63
2022/05/26 04:57:42;;;;;;;5.47;1.80;;;;;;;14.22;nan;99166.28;4991303;28;20046;-64
2022/05/26 05:00:13;;;;;;;3.35;2.38;;;;;;;14.34;nan;99159.97;4993447;28;20038;-64
2022/05/26 05:02:39;;;;;;;3.05;1.60;;;;;;;14.45;nan;99176.91;4991032;28;20030;-62
2022/05/26 05:05:06;;;;;;;1.77;1.67;;;;;;;14.48;nan;99176.81;4993626;28;20034;-64
2022/05/26 05:07:32;;;;;;;3.22;1.80;;;;;;;14.63;nan;99176.44;4997114;28;20033;-63
2022/05/26 05:09:58;;;;;;;1.90;1.80;;;;;;;14.66;nan;99160.00;4999840;28;20038;-63
2022/05/26 05:12:26;;;;;;;1.80;1.70;;;;;;;14.83;nan;99178.47;4989718;28;20026;-63
2022/05/26 05:14:54;;;;;;;2.47;2.17;;;;;;;14.96;nan;99184.97;4996069;28;20038;-63
2022/05/26 05:17:22;;;;;;;1.85;1.73;;;;;;;15.13;nan;99168.16;4998107;28;20029;-64
2022/05/26 05:19:48;;;;;;;2.78;2.03;;;;;;;15.32;nan;99180.47;4992675;28;20162;-63
2022/05/26 05:22:19;;;;;;;4.22;1.90;;;;;;;15.53;nan;99185.03;4991340;28;20026;-65
2022/05/26 05:24:48;;;;;;;2.72;1.98;;;;;;;15.67;nan;99183.78;4997060;28;20412;-64
2022/05/26 05:27:22;;;;;;;2.88;1.77;;;;;;;15.80;nan;99187.69;4996888;28;20451;-63
2022/05/26 05:29:50;;;;;;;2.00;1.90;;;;;;;15.99;nan;99188.81;4989805;28;20034;-63
2022/05/26 05:32:23;;;;;;;1.73;1.63;;;;;;;16.12;nan;99191.84;4991661;28;20633;-64
2022/05/26 05:34:56;;;;;;;2.03;1.63;;;;;;;16.30;nan;99192.09;4998847;28;20034;-64
2022/05/26 05:37:22;;;;;;;1.73;1.63;;;;;;;16.40;nan;99179.69;4996760;28;20038;-63
2022/05/26 05:39:48;;;;;;;1.80;1.67;;;;;;;16.58;nan;99176.53;4990451;28;20061;-63
2022/05/26 05:42:13;;;;;;;2.67;1.48;;;;;;;16.79;nan;99188.72;4993184;28;20060;-64
2022/05/26 05:44:39;;;;;;;1.80;1.35;;;;;;;17.05;nan;99177.44;4996019;28;20384;-64
2022/05/26 05:47:05;;;;;;;3.20;1.65;;;;;;;17.19;nan;99167.38;4994390;28;20045;-63
2022/05/26 05:49:32;;;;;;;1.55;1.55;;;;;;;17.43;nan;99176.00;4990975;28;20347;-64
2022/05/26 05:52:10;;;;;;;1.60;1.50;;;;;;;17.60;nan;99175.38;4992654;28;20069;-64
2022/05/26 05:54:36;;;;;;;1.38;1.38;;;;;;;17.73;nan;99169.66;5010303;28;20080;-63
2022/05/26 05:57:02;;;;;;;1.90;1.35;;;;;;;17.97;nan;99174.78;4991677;28;20033;-64
2022/05/26 05:59:27;;;;;;;1.05;1.05;;;;;;;18.18;nan;99179.09;4989380;28;20478;-64
2022/05/26 06:01:54;;;;;;;1.40;1.40;;;;;;;18.14;nan;99174.94;4994017;28;20041;-64
2022/05/26 06:04:19;;;;;;;1.40;1.30;;;;;;;18.19;nan;99180.78;4995133;28;20507;-64
2022/05/26 06:06:45;;;;;;;3.45;1.40;;;;;;;18.25;nan;99181.38;5004199;28;20045;-63
2022/05/26 06:09:20;;;;;;;1.83;1.38;;;;;;;18.47;nan;99175.28;4989035;28;20077;-64
2022/05/26 06:11:47;;;;;;;1.02;1.00;;;;;;;18.54;nan;99171.56;4996493;28;20042;-64
2022/05/26 06:14:13;;;;;;;1.38;1.38;;;;;;;18.35;nan;99170.59;4995627;28;20030;-63
2022/05/26 06:16:39;;;;;;;1.05;1.05;;;;;;;18.48;nan;99170.03;4990721;28;20432;-63
2022/05/26 06:19:04;;;;;;;2.67;1.20;;;;;;;18.49;nan;99176.94;4990810;28;20026;-63
2022/05/26 06:21:31;;;;;;;5.80;1.50;;;;;;;18.56;nan;99180.13;4994494;28;20038;-63
2022/05/26 06:23:57;;;;;;;1.20;1.20;;;;;;;18.68;nan;99182.19;4995860;28;20100;-63
2022/05/26 06:26:28;;;;;;;1.20;1.20;;;;;;;18.74;nan;99174.16;4989566;28;20152;-64
2022/05/26 06:31:37;;;;;;;1.05;1.05;;;;;;;18.94;nan;99191.47;4994767;28;20633;-63
2022/05/26 06:39:31;;;;;;;1.20;1.20;;;;;;;19.14;nan;99183.63;4994427;28;20037;-63
2022/05/26 06:42:05;;;;;;;1.63;1.33;;;;;;;19.14;nan;99181.00;4994670;28;20027;-63
2022/05/26 06:44:42;;;;;;;1.02;1.00;;;;;;;19.29;nan;99185.53;4990233;28;20155;-63
2022/05/26 06:47:10;;;;;;;1.65;1.20;;;;;;;19.36;nan;99180.88;4989504;28;20035;-64
2022/05/26 06:49:38;;;;;;;1.05;1.05;;;;;;;19.55;nan;99180.03;4992276;28;20092;-64
2022/05/26 06:52:04;;;;;;;1.10;1.10;;;;;;;19.67;nan;99186.41;5001051;28;20184;-63
2022/05/26 06:54:36;;;;;;;3.22;1.10;;;;;;;19.82;nan;99185.66;4988902;28;20157;-63
2022/05/26 06:57:03;;;;;;;1.38;0.95;;;;;;;19.89;nan;99187.09;4991376;28;20049;-63
2022/05/26 06:59:29;;;;;;;1.70;1.15;;;;;;;20.13;nan;99192.00;4994115;28;20038;-64
2022/05/26 07:01:55;;;;;;;1.23;1.23;;;;;;;20.24;nan;99197.56;4993102;28;20034;-64
2022/05/26 07:04:21;;;;;;;1.23;1.13;;;;;;;20.33;nan;99195.34;4988695;28;20041;-64
2022/05/26 07:06:51;;;;;;;1.42;1.25;;;;;;;20.43;nan;99193.13;4991541;28;20038;-64
2022/05/26 07:09:17;;;;;;;2.30;1.00;;;;;;;20.43;nan;99193.13;4995192;28;20030;-64
2022/05/26 07:11:44;;;;;;;1.15;1.15;;;;;;;20.41;nan;99195.00;4991855;28;20555;-64
2022/05/26 07:14:09;;;;;;;1.20;1.20;;;;;;;20.44;nan;99195.69;4987583;28;20482;-63
2022/05/26 07:16:35;;;;;;;2.38;1.00;;;;;;;20.59;nan;99194.03;4992699;28;20070;-64
2022/05/26 07:19:01;;;;;;;1.60;1.50;;;;;;;20.65;nan;99195.50;4995508;28;20124;-64
2022/05/26 07:21:26;;;;;;;1.48;1.38;;;;;;;20.73;nan;99194.19;4990846;28;20564;-64
2022/05/26 07:23:51;;;;;;;1.30;1.20;;;;;;;20.66;nan;99199.81;4987822;28;20041;-64
2022/05/26 07:26:17;;;;;;;1.15;1.10;;;;;;;20.85;nan;99200.53;4994454;28;20054;-64
2022/05/26 07:28:44;;;;;;;1.40;1.30;;;;;;;20.95;nan;99188.72;5001741;28;20037;-65
2022/05/26 07:31:11;;;;;;;2.20;1.52;;;;;;;20.99;nan;99187.63;4991327;28;20480;-64
2022/05/26 07:33:36;;;;;;;3.38;1.42;;;;;;;20.84;nan;99194.47;4988094;28;20492;-64
2022/05/26 07:36:02;;;;;;;1.58;1.42;;;;;;;20.70;nan;99181.34;4994148;28;20177;-64
2022/05/26 07:41:28;;;;;;;2.15;1.30;;;;;;;20.91;nan;99189.81;4952388;28;20031;-64
2022/05/26 07:43:58;;;;;;;2.10;1.55;;;;;;;21.00;nan;99194.53;4952326;28;20573;-63
2022/05/26 07:46:26;;;;;;;2.47;1.58;;;;;;;21.06;nan;99198.56;4961474;28;20109;-64
2022/05/26 07:48:52;;;;;;;1.45;1.45;;;;;;;21.24;nan;99208.91;4961958;28;20174;-64
2022/05/26 07:51:24;;;;;;;1.38;1.10;;;;;;;21.38;nan;99200.38;4957224;28;20044;-64
2022/05/26 07:53:50;;;;;;;1.35;1.25;;;;;;;21.61;nan;99196.50;4958043;28;20031;-64
2022/05/26 07:56:16;;;;;;;1.25;1.15;;;;;;;21.52;nan;99208.28;4960276;28;20544;-64
2022/05/26 07:58:43;;;;;;;1.58;1.50;;;;;;;21.61;nan;99209.53;4957038;28;20256;-65
2022/05/26 08:01:09;;;;;;;2.63;1.60;;;;;;;21.92;nan;99206.09;4955499;28;20042;-64
2022/05/26 08:03:36;;;;;;;2.08;1.48;;;;;;;21.73;nan;99214.09;4944019;28;20555;-64
2022/05/26 08:06:03;;;;;;;1.65;1.55;;;;;;;21.82;nan;99203.97;4960319;28;20070;-63
2022/05/26 08:08:32;;;;;;;1.50;1.40;;;;;;;21.91;nan;99199.16;4956431;28;20046;-64
2022/05/26 08:10:57;;;;;;;1.38;1.38;;;;;;;22.13;nan;99194.47;4954294;28;20070;-64
2022/05/26 08:13:22;;;;;;;1.70;1.50;;;;;;;22.19;nan;99210.63;4944485;28;20152;-64
2022/05/26 08:15:49;;;;;;;1.42;1.42;;;;;;;22.24;nan;99203.38;4983971;28;20457;-64
2022/05/26 08:18:15;;;;;;;2.45;1.70;;;;;;;22.29;nan;99198.72;4991109;28;20041;-63
2022/05/26 08:20:41;;;;;;;1.48;1.38;;;;;;;22.40;nan;99211.19;5006118;28;20026;-63
2022/05/26 08:23:07;;;;;;;1.83;1.30;;;;;;;22.48;nan;99205.50;4996129;28;20034;-63
2022/05/26 08:25:34;;;;;;;1.67;1.38;;;;;;;22.26;nan;99209.34;4996875;28;20026;-64
2022/05/26 08:27:59;;;;;;;1.42;1.35;;;;;;;22.17;nan;99204.66;4990357;28;20524;-65
2022/05/26 08:30:25;;;;;;;1.30;1.20;;;;;;;22.40;nan;99178.97;4992370;28;20042;-62
2022/05/26 08:32:52;;;;;;;2.00;1.38;;;;;;;22.29;nan;99192.66;4999878;28;20035;-63
2022/05/26 08:35:18;;;;;;;1.48;1.45;;;;;;;22.21;nan;99207.94;4995238;28;20380;-63
2022/05/26 08:37:43;;;;;;;1.38;1.33;;;;;;;22.05;nan;99204.50;4991298;28;20038;-62
2022/05/26 08:40:26;;;;;;;1.83;1.73;;;;;;;22.07;nan;99200.03;4992291;28;20100;-62
2022/05/26 08:42:51;;;;;;;1.23;1.23;;;;;;;22.36;nan;99194.00;4997443;28;20038;-61
2022/05/26 08:45:17;;;;;;;1.60;1.50;;;;;;;22.67;nan;99206.09;4994558;28;20026;-63
2022/05/26 08:47:48;;;;;;;3.20;2.28;;;;;;;22.90;nan;99186.47;4990079;28;20030;-63
2022/05/26 08:50:40;;;;;;;1.52;1.42;;;;;;;22.85;nan;99199.81;4994376;28;20054;-63
2022/05/26 08:53:24;;;;;;;1.92;1.48;;;;;;;22.91;nan;99180.31;4996604;28;20400;-64
2022/05/26 08:55:53;;;;;;;1.50;1.50;;;;;;;23.15;nan;99194.50;4990977;28;20037;-63
2022/05/26 08:58:22;;;;;;;1.27;1.27;;;;;;;22.48;nan;99203.75;4991055;28;20050;-63
2022/05/26 09:00:51;;;;;;;2.47;1.58;;;;;;;22.12;nan;99206.69;4998462;28;20373;-63
2022/05/26 09:03:31;;;;;;;1.58;1.50;;;;;;;21.77;nan;99203.38;4999016;28;20032;-63
2022/05/26 09:06:07;;;;;;;1.30;1.30;;;;;;;21.88;nan;99205.41;4989659;28;20050;-63
2022/05/26 09:14:33;;;;;;;2.20;1.38;;;;;;;22.33;nan;99205.44;4992519;28;20034;-65
2022/05/26 09:17:11;;;;;;;1.30;1.30;;;;;;;22.71;nan;99211.09;4991147;28;20128;-64
2022/05/26 09:19:42;;;;;;;2.72;1.40;;;;;;;22.83;nan;99211.31;4997350;28;20073;-64
2022/05/26 09:22:33;;;;;;;1.17;1.17;;;;;;;22.76;nan;99201.19;4994847;28;20468;-64
2022/05/26 09:25:00;;;;;;;1.70;1.60;;;;;;;22.72;nan;99210.16;4990456;28;20497;-64
2022/05/26 09:27:34;;;;;;;2.13;1.20;;;;;;;22.25;nan;99219.88;4993212;28;20046;-64
2022/05/26 09:30:23;;;;;;;1.42;1.33;;;;;;;21.99;nan;99212.66;4997919;28;20030;-65
2022/05/26 09:32:49;;;;;;;1.48;1.40;;;;;;;21.97;nan;99218.00;4998668;28;20172;-64
2022/05/26 09:35:26;;;;;;;2.85;1.65;;;;;;;21.71;nan;99208.13;4989857;28;20038;-63
2022/05/26 09:37:57;;;;;;;1.50;1.50;;;;;;;21.92;nan;99206.09;4994360;28;20112;-64
2022/05/26 09:40:29;;;;;;;2.03;1.60;;;;;;;21.84;nan;99215.19;4996787;28;20131;-65
2022/05/26 09:43:17;;;;;;;1.95;1.85;;;;;;;21.82;nan;99221.41;4991060;28;20041;-64
2022/05/26 09:45:48;;;;;;;1.95;1.50;;;;;;;21.96;nan;99220.69;4994832;28;20034;-65
2022/05/26 09:48:26;;;;;;;1.45;1.35;;;;;;;22.27;nan;99229.34;4997445;28;20026;-64
2022/05/26 09:50:54;;;;;;;1.30;1.13;;;;;;;22.36;nan;99235.81;4995642;28;20479;-65
2022/05/26 09:53:41;;;;;;;1.55;1.45;;;;;;;22.29;nan;99226.63;4990865;28;20030;-65
2022/05/26 09:56:11;;;;;;;1.40;1.40;;;;;;;22.53;nan;99224.38;4994126;28;20026;-64
2022/05/26 09:58:41;;;;;;;1.38;1.30;;;;;;;22.96;nan;99217.47;4995938;28;20562;-65
2022/05/26 10:01:24;;;;;;;1.65;1.45;;;;;;;22.81;nan;99216.63;4991135;28;20046;-65
2022/05/26 10:04:06;;;;;;;2.38;2.25;;;;;;;22.98;nan;99220.84;4989109;28;20037;-65
2022/05/26 10:06:46;;;;;;;1.73;1.63;;;;;;;23.13;nan;99223.38;4996388;28;20076;-65
2022/05/26 10:09:48;;;;;;;1.45;1.40;;;;;;;23.12;nan;99223.47;5008857;28;20034;-63
2022/05/26 10:12:47;;;;;;;2.67;1.55;;;;;;;23.10;nan;99225.34;4990372;28;20100;-64
2022/05/26 10:15:20;;;;;;;4.05;1.80;;;;;;;22.99;nan;99206.84;4995926;28;20037;-63
2022/05/26 10:18:13;;;;;;;2.10;1.70;;;;;;;23.03;nan;99213.56;4986995;28;20085;-63
2022/05/26 10:20:46;;;;;;;1.50;1.50;;;;;;;23.23;nan;99223.66;4997848;28;20054;-64
2022/05/26 10:23:12;;;;;;;1.55;1.55;;;;;;;22.77;nan;99222.97;4990610;28;20161;-64
2022/05/26 10:25:37;;;;;;;2.80;1.77;;;;;;;22.86;nan;99222.41;4994023;28;20029;-65
2022/05/26 10:28:12;;;;;;;2.08;1.98;;;;;;;22.95;nan;99211.41;4992727;28;20049;-64
2022/05/26 10:31:04;;;;;;;2.22;1.73;;;;;;;22.89;nan;99213.53;4988486;28;20033;-63
2022/05/26 10:33:55;;;;;;;1.95;1.52;;;;;;;23.24;nan;99204.41;4992027;28;20409;-63
2022/05/26 10:36:40;;;;;;;1.40;1.40;;;;;;;23.41;nan;99209.44;4993897;28;20042;-63
2022/05/26 10:39:08;;;;;;;2.70;1.35;;;;;;;23.02;nan;99189.19;4987641;28;20046;-64
2022/05/26 10:41:43;;;;;;;1.70;1.63;;;;;;;23.21;nan;99202.00;4988939;28;20034;-64
2022/05/26 10:44:11;;;;;;;1.73;1.63;;;;;;;23.53;nan;99197.41;4993903;28;20034;-64
2022/05/26 10:46:43;;;;;;;2.10;2.00;;;;;;;23.31;nan;99187.38;4995329;28;20037;-65
2022/05/26 10:49:23;;;;;;;1.90;1.80;;;;;;;23.36;nan;99195.81;4988810;28;20066;-64
2022/05/26 10:51:58;;;;;;;3.15;1.30;;;;;;;22.93;nan;99184.50;4990602;28;20486;-65
2022/05/26 10:54:34;;;;;;;2.25;1.60;;;;;;;22.61;nan;99196.88;4995638;28;20595;-65
2022/05/26 10:57:17;;;;;;;1.60;1.50;;;;;;;22.70;nan;99190.28;4990603;28;20038;-65
2022/05/26 10:59:48;;;;;;;1.77;1.60;;;;;;;22.70;nan;99175.41;4988119;28;20523;-65
2022/05/26 11:02:34;;;;;;;1.35;1.30;;;;;;;22.94;nan;99187.97;4993392;28;20029;-64
2022/05/26 11:05:11;;;;;;;1.95;1.83;;;;;;;23.32;nan;99186.47;4993058;28;20068;-66
2022/05/26 11:07:52;;;;;;;2.05;1.20;;;;;;;23.51;nan;99191.41;4988124;28;20737;-65
2022/05/26 11:10:24;;;;;;;1.50;1.40;;;;;;;23.54;nan;99189.47;4991315;28;20497;-66
2022/05/26 11:13:28;;;;;;;2.92;1.42;;;;;;;23.21;nan;99196.75;5001696;28;20121;-65
2022/05/26 11:18:54;;;;;;;1.50;1.40;;;;;;;23.09;nan;99172.16;4988400;28;20041;-65
2022/05/26 11:21:22;;;;;;;2.00;1.52;;;;;;;23.66;nan;99182.59;4994360;28;20046;-65
2022/05/26 11:23:49;;;;;;;1.38;1.20;;;;;;;23.88;nan;99176.84;4992302;28;20027;-65
2022/05/26 11:26:36;;;;;;;1.50;1.40;;;;;;;23.78;nan;99175.72;5004137;28;20445;-66
2022/05/26 11:29:12;;;;;;;1.50;1.50;;;;;;;23.49;nan;99167.13;4990201;28;20034;-64
2022/05/26 11:37:40;;;;;;;1.45;1.35;;;;;;;24.36;nan;99168.38;4987628;28;20075;-64
2022/05/26 11:40:11;;;;;;;2.30;1.70;;;;;;;24.54;nan;99163.69;4994060;28;20054;-65
2022/05/26 11:42:49;;;;;;;1.77;1.55;;;;;;;24.43;nan;99163.59;4993247;28;20056;-65
2022/05/26 11:45:19;;;;;;;1.88;1.77;;;;;;;24.28;nan;99160.19;4986740;28;20381;-64
2022/05/26 11:48:04;;;;;;;1.70;1.55;;;;;;;24.35;nan;99161.50;4989559;28;20037;-64
2022/05/26 11:50:48;;;;;;;1.90;1.80;;;;;;;24.07;nan;99167.66;4992653;28;20048;-65
2022/05/26 11:53:43;;;;;;;1.67;1.58;;;;;;;23.70;nan;99168.38;4995611;28;20425;-64
2022/05/26 11:56:24;;;;;;;2.08;1.90;;;;;;;23.91;nan;99158.28;4989487;28;20143;-65
2022/05/26 11:59:27;;;;;;;1.75;1.50;;;;;;;24.09;nan;99164.97;4995183;28;20037;-65
2022/05/26 12:01:59;;;;;;;2.50;1.40;;;;;;;24.29;nan;99159.25;4992854;28;20026;-64
2022/05/26 12:04:35;;;;;;;1.40;1.40;;;;;;;24.13;nan;99156.78;4987270;28;20065;-64
2022/05/26 12:07:04;;;;;;;3.75;1.83;;;;;;;24.04;nan;99162.63;4990191;28;20073;-63
2022/05/26 12:09:44;;;;;;;1.98;1.77;;;;;;;24.44;nan;99134.63;4994116;28;20031;-63
2022/05/26 12:12:18;;;;;;;2.30;2.20;;;;;;;24.65;nan;99147.25;4991397;28;20037;-64
2022/05/26 12:14:46;;;;;;;1.45;1.45;;;;;;;24.61;nan;99156.28;5002972;28;20370;-64
2022/05/26 12:17:30;;;;;;;2.03;1.92;;;;;;;24.28;nan;99152.34;4993505;28;20450;-64
2022/05/26 12:20:04;;;;;;;3.28;1.85;;;;;;;23.95;nan;99147.50;4993246;28;20124;-64
2022/05/26 12:22:37;;;;;;;1.53;1.47;;;;;;;24.00;nan;99126.25;4988159;28;20030;-62
2022/05/26 12:25:30;;;;;;;2.80;1.67;;;;;;;23.62;nan;99129.59;4989631;28;20105;-63
2022/05/26 12:28:00;;;;;;;1.42;1.33;;;;;;;23.79;nan;99146.00;4992525;28;20488;-63
2022/05/26 12:30:44;;;;;;;3.03;1.65;;;;;;;24.10;nan;99119.47;4991792;28;20089;-63
2022/05/26 12:33:09;;;;;;;2.83;1.58;;;;;;;24.11;nan;99142.94;4992251;28;20038;-64
2022/05/26 12:35:51;;;;;;;2.28;1.73;;;;;;;23.75;nan;99139.28;4994562;28;20046;-64
2022/05/26 12:38:32;;;;;;;2.17;1.95;;;;;;;23.91;nan;99134.72;4996616;28;20038;-65
2022/05/26 12:41:03;;;;;;;1.67;1.58;;;;;;;23.84;nan;99138.69;4993390;28;20038;-63
2022/05/26 12:43:47;;;;;;;4.50;1.50;;;;;;;23.72;nan;99135.06;4991502;28;20700;-63
2022/05/26 12:46:31;;;;;;;1.60;1.60;;;;;;;23.42;nan;99130.00;4997763;28;20050;-67
2022/05/26 12:49:04;;;;;;;1.58;1.48;;;;;;;23.41;nan;99125.69;4995498;28;20534;-64